sensor_id;sensor_type;location;lat;lon;timestamp;P1;durP1;ratioP1;P2;durP2;ratioP2
73747;SDS011;62056;52.130;5.428;2023-02-18T00:01:12;95.50;;;43.90;;
73747;SDS011;62056;52.130;5.428;2023-02-18T00:03:40;49.22;;;27.83;;
73747;SDS011;62056;52.130;5.428;2023-02-18T00:06:15;23.55;;;14.18;;
73747;SDS011;62056;52.130;5.428;2023-02-18T00:08:48;44.10;;;23.88;;
73747;SDS011;62056;52.130;5.428;2023-02-18T00:11:16;25.73;;;14.23;;
73747;SDS011;62056;52.130;5.428;2023-02-18T00:13:52;29.93;;;15.90;;
73747;SDS011;62056;52.130;5.428;2023-02-18T00:16:21;30.95;;;14.57;;
73747;SDS011;62056;52.130;5.428;2023-02-18T00:18:49;26.00;;;15.50;;
73747;SDS011;62056;52.130;5.428;2023-02-18T00:21:16;37.03;;;15.18;;
73747;SDS011;62056;52.130;5.428;2023-02-18T00:23:42;24.75;;;12.65;;
73747;SDS011;62056;52.130;5.428;2023-02-18T00:26:14;25.30;;;12.23;;
73747;SDS011;62056;52.130;5.428;2023-02-18T00:28:42;41.67;;;16.23;;
73747;SDS011;62056;52.130;5.428;2023-02-18T00:31:10;35.50;;;16.90;;
73747;SDS011;62056;52.130;5.428;2023-02-18T00:33:41;33.92;;;15.23;;
73747;SDS011;62056;52.130;5.428;2023-02-18T00:36:09;41.30;;;17.02;;
73747;SDS011;62056;52.130;5.428;2023-02-18T00:38:38;36.57;;;16.83;;
73747;SDS011;62056;52.130;5.428;2023-02-18T00:41:08;29.55;;;13.45;;
73747;SDS011;62056;52.130;5.428;2023-02-18T00:43:35;39.10;;;16.13;;
73747;SDS011;62056;52.130;5.428;2023-02-18T00:46:02;44.22;;;17.52;;
73747;SDS011;62056;52.130;5.428;2023-02-18T00:48:28;44.95;;;16.55;;
73747;SDS011;62056;52.130;5.428;2023-02-18T00:50:55;31.57;;;13.80;;
73747;SDS011;62056;52.130;5.428;2023-02-18T00:53:21;49.22;;;16.55;;
73747;SDS011;62056;52.130;5.428;2023-02-18T00:55:48;35.75;;;15.55;;
73747;SDS011;62056;52.130;5.428;2023-02-18T00:58:15;31.98;;;14.40;;
73747;SDS011;62056;52.130;5.428;2023-02-18T01:00:42;33.17;;;13.93;;
73747;SDS011;62056;52.130;5.428;2023-02-18T01:03:09;42.60;;;17.10;;
73747;SDS011;62056;52.130;5.428;2023-02-18T01:05:37;43.50;;;16.33;;
73747;SDS011;62056;52.130;5.428;2023-02-18T01:08:04;38.30;;;16.00;;
73747;SDS011;62056;52.130;5.428;2023-02-18T01:10:33;41.22;;;16.30;;
73747;SDS011;62056;52.130;5.428;2023-02-18T01:13:00;35.40;;;13.68;;
73747;SDS011;62056;52.130;5.428;2023-02-18T01:15:27;34.73;;;14.80;;
73747;SDS011;62056;52.130;5.428;2023-02-18T01:17:53;31.52;;;13.70;;
73747;SDS011;62056;52.130;5.428;2023-02-18T01:20:20;41.45;;;16.83;;
73747;SDS011;62056;52.130;5.428;2023-02-18T01:22:47;35.53;;;13.82;;
73747;SDS011;62056;52.130;5.428;2023-02-18T01:25:14;41.78;;;12.05;;
73747;SDS011;62056;52.130;5.428;2023-02-18T01:27:41;22.60;;;11.30;;
73747;SDS011;62056;52.130;5.428;2023-02-18T01:30:10;47.95;;;23.92;;
73747;SDS011;62056;52.130;5.428;2023-02-18T01:32:39;32.17;;;12.57;;
73747;SDS011;62056;52.130;5.428;2023-02-18T01:35:06;30.65;;;12.93;;
73747;SDS011;62056;52.130;5.428;2023-02-18T01:37:33;25.02;;;12.57;;
73747;SDS011;62056;52.130;5.428;2023-02-18T01:40:00;20.87;;;11.47;;
73747;SDS011;62056;52.130;5.428;2023-02-18T01:42:27;40.90;;;20.65;;
73747;SDS011;62056;52.130;5.428;2023-02-18T01:45:26;39.90;;;21.75;;
73747;SDS011;62056;52.130;5.428;2023-02-18T01:48:04;29.70;;;15.52;;
73747;SDS011;62056;52.130;5.428;2023-02-18T01:50:36;20.92;;;11.05;;
73747;SDS011;62056;52.130;5.428;2023-02-18T01:53:08;23.13;;;12.47;;
73747;SDS011;62056;52.130;5.428;2023-02-18T01:55:35;24.40;;;10.38;;
73747;SDS011;62056;52.130;5.428;2023-02-18T01:58:04;23.70;;;10.93;;
73747;SDS011;62056;52.130;5.428;2023-02-18T02:00:31;24.25;;;10.90;;
73747;SDS011;62056;52.130;5.428;2023-02-18T02:02:58;23.13;;;11.93;;
73747;SDS011;62056;52.130;5.428;2023-02-18T02:05:25;28.07;;;12.70;;
73747;SDS011;62056;52.130;5.428;2023-02-18T02:07:56;22.00;;;10.60;;
73747;SDS011;62056;52.130;5.428;2023-02-18T02:10:25;23.27;;;11.95;;
73747;SDS011;62056;52.130;5.428;2023-02-18T02:16:03;29.58;;;10.63;;
73747;SDS011;62056;52.130;5.428;2023-02-18T02:18:57;32.47;;;13.47;;
73747;SDS011;62056;52.130;5.428;2023-02-18T02:21:44;41.75;;;14.75;;
73747;SDS011;62056;52.130;5.428;2023-02-18T02:27:03;34.85;;;15.30;;
73747;SDS011;62056;52.130;5.428;2023-02-18T02:32:26;30.30;;;13.67;;
73747;SDS011;62056;52.130;5.428;2023-02-18T02:35:12;31.15;;;14.05;;
73747;SDS011;62056;52.130;5.428;2023-02-18T02:46:19;41.13;;;18.07;;
73747;SDS011;62056;52.130;5.428;2023-02-18T02:51:57;53.15;;;26.38;;
73747;SDS011;62056;52.130;5.428;2023-02-18T02:54:31;77.57;;;35.63;;
73747;SDS011;62056;52.130;5.428;2023-02-18T02:57:04;33.72;;;16.50;;
73747;SDS011;62056;52.130;5.428;2023-02-18T02:59:33;49.80;;;21.60;;
73747;SDS011;62056;52.130;5.428;2023-02-18T03:02:09;40.60;;;17.13;;
73747;SDS011;62056;52.130;5.428;2023-02-18T03:07:41;46.55;;;21.10;;
73747;SDS011;62056;52.130;5.428;2023-02-18T03:10:29;40.83;;;18.58;;
73747;SDS011;62056;52.130;5.428;2023-02-18T03:13:03;43.90;;;19.07;;
73747;SDS011;62056;52.130;5.428;2023-02-18T03:15:54;32.28;;;14.15;;
73747;SDS011;62056;52.130;5.428;2023-02-18T03:20:54;31.05;;;14.77;;
73747;SDS011;62056;52.130;5.428;2023-02-18T03:23:32;27.58;;;13.00;;
73747;SDS011;62056;52.130;5.428;2023-02-18T03:26:03;23.97;;;12.10;;
73747;SDS011;62056;52.130;5.428;2023-02-18T03:28:33;26.25;;;11.88;;
73747;SDS011;62056;52.130;5.428;2023-02-18T03:31:11;26.48;;;11.70;;
73747;SDS011;62056;52.130;5.428;2023-02-18T03:33:44;23.38;;;11.85;;
73747;SDS011;62056;52.130;5.428;2023-02-18T03:36:15;30.30;;;14.55;;
73747;SDS011;62056;52.130;5.428;2023-02-18T03:41:21;23.70;;;10.93;;
73747;SDS011;62056;52.130;5.428;2023-02-18T03:43:49;26.23;;;11.98;;
73747;SDS011;62056;52.130;5.428;2023-02-18T03:46:18;22.40;;;11.07;;
73747;SDS011;62056;52.130;5.428;2023-02-18T03:48:45;30.13;;;12.05;;
73747;SDS011;62056;52.130;5.428;2023-02-18T03:51:12;17.27;;;9.60;;
73747;SDS011;62056;52.130;5.428;2023-02-18T03:53:39;19.15;;;8.52;;
73747;SDS011;62056;52.130;5.428;2023-02-18T03:56:06;16.05;;;7.97;;
73747;SDS011;62056;52.130;5.428;2023-02-18T03:58:33;14.77;;;8.57;;
73747;SDS011;62056;52.130;5.428;2023-02-18T04:01:00;11.07;;;6.25;;
73747;SDS011;62056;52.130;5.428;2023-02-18T04:03:27;11.70;;;6.10;;
73747;SDS011;62056;52.130;5.428;2023-02-18T04:05:53;8.07;;;4.72;;
73747;SDS011;62056;52.130;5.428;2023-02-18T04:08:20;11.38;;;7.25;;
73747;SDS011;62056;52.130;5.428;2023-02-18T04:10:46;14.27;;;6.35;;
73747;SDS011;62056;52.130;5.428;2023-02-18T04:13:13;9.18;;;4.40;;
73747;SDS011;62056;52.130;5.428;2023-02-18T04:15:40;5.87;;;3.93;;
73747;SDS011;62056;52.130;5.428;2023-02-18T04:18:06;6.00;;;3.47;;
73747;SDS011;62056;52.130;5.428;2023-02-18T04:20:33;6.15;;;4.22;;
73747;SDS011;62056;52.130;5.428;2023-02-18T04:23:00;5.97;;;3.45;;
73747;SDS011;62056;52.130;5.428;2023-02-18T04:25:27;5.60;;;3.40;;
73747;SDS011;62056;52.130;5.428;2023-02-18T04:27:53;3.50;;;2.70;;
73747;SDS011;62056;52.130;5.428;2023-02-18T04:30:20;3.88;;;2.67;;
73747;SDS011;62056;52.130;5.428;2023-02-18T04:32:47;3.53;;;2.58;;
73747;SDS011;62056;52.130;5.428;2023-02-18T04:35:14;4.15;;;2.50;;
73747;SDS011;62056;52.130;5.428;2023-02-18T04:37:41;3.08;;;2.05;;
73747;SDS011;62056;52.130;5.428;2023-02-18T04:40:08;3.97;;;3.50;;
73747;SDS011;62056;52.130;5.428;2023-02-18T04:42:35;5.13;;;3.20;;
73747;SDS011;62056;52.130;5.428;2023-02-18T04:45:02;4.78;;;3.40;;
73747;SDS011;62056;52.130;5.428;2023-02-18T04:47:29;4.90;;;3.13;;
73747;SDS011;62056;52.130;5.428;2023-02-18T04:49:56;5.85;;;3.90;;
73747;SDS011;62056;52.130;5.428;2023-02-18T04:52:23;3.57;;;3.07;;
73747;SDS011;62056;52.130;5.428;2023-02-18T04:54:49;4.00;;;2.95;;
73747;SDS011;62056;52.130;5.428;2023-02-18T04:57:16;5.63;;;2.88;;
73747;SDS011;62056;52.130;5.428;2023-02-18T04:59:43;4.15;;;3.30;;
73747;SDS011;62056;52.130;5.428;2023-02-18T05:02:10;2.47;;;2.13;;
73747;SDS011;62056;52.130;5.428;2023-02-18T05:04:36;3.03;;;2.33;;
73747;SDS011;62056;52.130;5.428;2023-02-18T05:07:03;4.65;;;3.35;;
73747;SDS011;62056;52.130;5.428;2023-02-18T05:09:30;3.70;;;3.40;;
73747;SDS011;62056;52.130;5.428;2023-02-18T05:11:56;4.97;;;2.85;;
73747;SDS011;62056;52.130;5.428;2023-02-18T05:14:23;4.05;;;2.30;;
73747;SDS011;62056;52.130;5.428;2023-02-18T05:16:49;3.80;;;3.20;;
73747;SDS011;62056;52.130;5.428;2023-02-18T05:19:16;3.83;;;3.42;;
73747;SDS011;62056;52.130;5.428;2023-02-18T05:21:44;5.22;;;4.15;;
73747;SDS011;62056;52.130;5.428;2023-02-18T05:24:11;4.03;;;3.30;;
73747;SDS011;62056;52.130;5.428;2023-02-18T05:26:38;3.70;;;3.40;;
73747;SDS011;62056;52.130;5.428;2023-02-18T05:29:04;3.70;;;3.30;;
73747;SDS011;62056;52.130;5.428;2023-02-18T05:31:31;3.35;;;2.90;;
73747;SDS011;62056;52.130;5.428;2023-02-18T05:33:58;4.00;;;3.60;;
73747;SDS011;62056;52.130;5.428;2023-02-18T05:36:25;4.97;;;3.63;;
73747;SDS011;62056;52.130;5.428;2023-02-18T05:38:51;3.13;;;2.42;;
73747;SDS011;62056;52.130;5.428;2023-02-18T05:41:18;3.77;;;3.07;;
73747;SDS011;62056;52.130;5.428;2023-02-18T05:43:45;4.07;;;3.58;;
73747;SDS011;62056;52.130;5.428;2023-02-18T05:46:31;6.15;;;4.50;;
73747;SDS011;62056;52.130;5.428;2023-02-18T05:48:58;5.40;;;4.90;;
73747;SDS011;62056;52.130;5.428;2023-02-18T05:51:24;6.85;;;4.88;;
73747;SDS011;62056;52.130;5.428;2023-02-18T05:53:51;5.60;;;4.33;;
73747;SDS011;62056;52.130;5.428;2023-02-18T05:56:18;10.35;;;6.72;;
73747;SDS011;62056;52.130;5.428;2023-02-18T05:58:45;8.10;;;6.32;;
73747;SDS011;62056;52.130;5.428;2023-02-18T06:01:11;8.05;;;6.65;;
73747;SDS011;62056;52.130;5.428;2023-02-18T06:03:38;13.00;;;8.57;;
73747;SDS011;62056;52.130;5.428;2023-02-18T06:06:05;10.77;;;8.07;;
73747;SDS011;62056;52.130;5.428;2023-02-18T06:08:32;11.38;;;8.32;;
73747;SDS011;62056;52.130;5.428;2023-02-18T06:10:59;11.77;;;8.85;;
73747;SDS011;62056;52.130;5.428;2023-02-18T06:13:26;9.57;;;6.93;;
73747;SDS011;62056;52.130;5.428;2023-02-18T06:15:52;7.60;;;6.78;;
73747;SDS011;62056;52.130;5.428;2023-02-18T06:18:20;15.97;;;8.17;;
73747;SDS011;62056;52.130;5.428;2023-02-18T06:20:47;11.13;;;5.97;;
73747;SDS011;62056;52.130;5.428;2023-02-18T06:23:14;8.98;;;7.55;;
73747;SDS011;62056;52.130;5.428;2023-02-18T06:25:41;9.85;;;7.85;;
73747;SDS011;62056;52.130;5.428;2023-02-18T06:28:08;9.38;;;7.45;;
73747;SDS011;62056;52.130;5.428;2023-02-18T06:30:35;9.20;;;6.10;;
73747;SDS011;62056;52.130;5.428;2023-02-18T06:33:01;10.30;;;8.77;;
73747;SDS011;62056;52.130;5.428;2023-02-18T06:35:29;10.30;;;7.28;;
73747;SDS011;62056;52.130;5.428;2023-02-18T06:37:57;10.88;;;8.35;;
73747;SDS011;62056;52.130;5.428;2023-02-18T06:40:23;12.05;;;8.50;;
73747;SDS011;62056;52.130;5.428;2023-02-18T06:42:50;12.60;;;7.80;;
73747;SDS011;62056;52.130;5.428;2023-02-18T06:45:17;10.50;;;7.75;;
73747;SDS011;62056;52.130;5.428;2023-02-18T06:47:44;7.05;;;5.47;;
73747;SDS011;62056;52.130;5.428;2023-02-18T06:50:10;9.88;;;7.30;;
73747;SDS011;62056;52.130;5.428;2023-02-18T06:52:37;9.38;;;7.30;;
73747;SDS011;62056;52.130;5.428;2023-02-18T06:55:04;10.07;;;6.47;;
73747;SDS011;62056;52.130;5.428;2023-02-18T06:57:31;7.85;;;6.28;;
73747;SDS011;62056;52.130;5.428;2023-02-18T06:59:57;13.00;;;7.63;;
73747;SDS011;62056;52.130;5.428;2023-02-18T07:02:24;12.27;;;7.03;;
73747;SDS011;62056;52.130;5.428;2023-02-18T07:04:51;11.38;;;6.57;;
73747;SDS011;62056;52.130;5.428;2023-02-18T07:07:18;8.57;;;5.93;;
73747;SDS011;62056;52.130;5.428;2023-02-18T07:09:44;10.32;;;6.93;;
73747;SDS011;62056;52.130;5.428;2023-02-18T07:12:11;13.15;;;6.70;;
73747;SDS011;62056;52.130;5.428;2023-02-18T07:14:38;12.02;;;6.93;;
73747;SDS011;62056;52.130;5.428;2023-02-18T07:17:05;11.80;;;6.47;;
73747;SDS011;62056;52.130;5.428;2023-02-18T07:19:32;13.07;;;7.10;;
73747;SDS011;62056;52.130;5.428;2023-02-18T07:21:58;10.85;;;6.57;;
73747;SDS011;62056;52.130;5.428;2023-02-18T07:24:26;9.07;;;5.57;;
73747;SDS011;62056;52.130;5.428;2023-02-18T07:26:53;19.75;;;8.70;;
73747;SDS011;62056;52.130;5.428;2023-02-18T07:29:19;14.50;;;7.88;;
73747;SDS011;62056;52.130;5.428;2023-02-18T07:31:46;10.07;;;7.10;;
73747;SDS011;62056;52.130;5.428;2023-02-18T07:34:13;20.55;;;8.73;;
73747;SDS011;62056;52.130;5.428;2023-02-18T07:36:40;13.15;;;7.68;;
73747;SDS011;62056;52.130;5.428;2023-02-18T07:39:07;12.52;;;6.93;;
73747;SDS011;62056;52.130;5.428;2023-02-18T07:41:34;18.75;;;9.43;;
73747;SDS011;62056;52.130;5.428;2023-02-18T07:44:00;11.17;;;6.67;;
73747;SDS011;62056;52.130;5.428;2023-02-18T07:46:27;21.10;;;9.15;;
73747;SDS011;62056;52.130;5.428;2023-02-18T07:48:55;16.95;;;9.15;;
73747;SDS011;62056;52.130;5.428;2023-02-18T07:51:23;21.05;;;8.20;;
73747;SDS011;62056;52.130;5.428;2023-02-18T07:53:50;15.18;;;5.78;;
73747;SDS011;62056;52.130;5.428;2023-02-18T07:56:17;18.27;;;6.87;;
73747;SDS011;62056;52.130;5.428;2023-02-18T07:58:43;9.35;;;5.68;;
73747;SDS011;62056;52.130;5.428;2023-02-18T08:01:11;7.95;;;4.80;;
73747;SDS011;62056;52.130;5.428;2023-02-18T08:03:40;11.63;;;4.00;;
73747;SDS011;62056;52.130;5.428;2023-02-18T08:06:07;6.78;;;4.05;;
73747;SDS011;62056;52.130;5.428;2023-02-18T08:08:35;17.30;;;4.80;;
73747;SDS011;62056;52.130;5.428;2023-02-18T08:11:02;12.35;;;3.63;;
73747;SDS011;62056;52.130;5.428;2023-02-18T08:13:44;16.00;;;4.07;;
73747;SDS011;62056;52.130;5.428;2023-02-18T08:16:12;16.27;;;3.63;;
73747;SDS011;62056;52.130;5.428;2023-02-18T08:18:40;5.97;;;2.10;;
73747;SDS011;62056;52.130;5.428;2023-02-18T08:21:07;14.13;;;2.30;;
73747;SDS011;62056;52.130;5.428;2023-02-18T08:23:33;14.52;;;2.88;;
73747;SDS011;62056;52.130;5.428;2023-02-18T08:26:00;13.23;;;2.88;;
73747;SDS011;62056;52.130;5.428;2023-02-18T08:28:27;20.58;;;2.47;;
73747;SDS011;62056;52.130;5.428;2023-02-18T08:30:54;10.82;;;2.20;;
73747;SDS011;62056;52.130;5.428;2023-02-18T08:33:21;17.60;;;3.80;;
73747;SDS011;62056;52.130;5.428;2023-02-18T08:35:49;6.18;;;1.77;;
73747;SDS011;62056;52.130;5.428;2023-02-18T08:38:17;18.00;;;2.08;;
73747;SDS011;62056;52.130;5.428;2023-02-18T08:40:45;10.27;;;2.03;;
73747;SDS011;62056;52.130;5.428;2023-02-18T08:43:12;12.85;;;1.30;;
73747;SDS011;62056;52.130;5.428;2023-02-18T08:45:39;10.07;;;2.03;;
73747;SDS011;62056;52.130;5.428;2023-02-18T08:48:08;10.88;;;1.95;;
73747;SDS011;62056;52.130;5.428;2023-02-18T08:50:45;7.32;;;1.80;;
73747;SDS011;62056;52.130;5.428;2023-02-18T08:53:13;11.43;;;2.30;;
73747;SDS011;62056;52.130;5.428;2023-02-18T08:55:40;12.63;;;1.30;;
73747;SDS011;62056;52.130;5.428;2023-02-18T08:58:07;12.50;;;1.37;;
73747;SDS011;62056;52.130;5.428;2023-02-18T09:00:34;8.45;;;1.52;;
73747;SDS011;62056;52.130;5.428;2023-02-18T09:03:01;5.50;;;1.77;;
73747;SDS011;62056;52.130;5.428;2023-02-18T09:05:28;8.23;;;1.73;;
73747;SDS011;62056;52.130;5.428;2023-02-18T09:07:56;10.10;;;1.42;;
73747;SDS011;62056;52.130;5.428;2023-02-18T09:10:24;11.03;;;1.57;;
73747;SDS011;62056;52.130;5.428;2023-02-18T09:12:50;8.32;;;1.80;;
73747;SDS011;62056;52.130;5.428;2023-02-18T09:15:17;8.93;;;1.10;;
73747;SDS011;62056;52.130;5.428;2023-02-18T09:17:44;6.72;;;0.98;;
73747;SDS011;62056;52.130;5.428;2023-02-18T09:20:11;16.10;;;2.00;;
73747;SDS011;62056;52.130;5.428;2023-02-18T09:22:38;15.43;;;1.50;;
73747;SDS011;62056;52.130;5.428;2023-02-18T09:25:05;6.18;;;1.10;;
73747;SDS011;62056;52.130;5.428;2023-02-18T09:27:33;8.73;;;1.55;;
73747;SDS011;62056;52.130;5.428;2023-02-18T09:29:59;5.68;;;1.15;;
73747;SDS011;62056;52.130;5.428;2023-02-18T09:32:26;7.88;;;1.13;;
73747;SDS011;62056;52.130;5.428;2023-02-18T09:35:00;9.50;;;1.57;;
73747;SDS011;62056;52.130;5.428;2023-02-18T09:37:28;3.42;;;1.05;;
73747;SDS011;62056;52.130;5.428;2023-02-18T09:39:55;6.82;;;1.38;;
73747;SDS011;62056;52.130;5.428;2023-02-18T09:42:23;7.15;;;1.88;;
73747;SDS011;62056;52.130;5.428;2023-02-18T09:44:57;11.65;;;1.48;;
73747;SDS011;62056;52.130;5.428;2023-02-18T09:47:31;6.27;;;1.30;;
73747;SDS011;62056;52.130;5.428;2023-02-18T09:50:05;9.00;;;1.45;;
73747;SDS011;62056;52.130;5.428;2023-02-18T09:52:38;7.93;;;1.40;;
73747;SDS011;62056;52.130;5.428;2023-02-18T10:00:45;5.07;;;1.13;;
73747;SDS011;62056;52.130;5.428;2023-02-18T10:03:20;5.65;;;1.35;;
73747;SDS011;62056;52.130;5.428;2023-02-18T10:08:49;9.82;;;2.05;;
73747;SDS011;62056;52.130;5.428;2023-02-18T10:11:29;8.32;;;1.23;;
73747;SDS011;62056;52.130;5.428;2023-02-18T10:14:04;8.57;;;1.40;;
73747;SDS011;62056;52.130;5.428;2023-02-18T10:16:36;9.13;;;1.42;;
73747;SDS011;62056;52.130;5.428;2023-02-18T10:19:04;5.90;;;1.40;;
73747;SDS011;62056;52.130;5.428;2023-02-18T10:21:46;7.43;;;1.50;;
73747;SDS011;62056;52.130;5.428;2023-02-18T10:24:18;11.25;;;1.13;;
73747;SDS011;62056;52.130;5.428;2023-02-18T10:26:51;7.13;;;1.50;;
73747;SDS011;62056;52.130;5.428;2023-02-18T10:29:19;12.63;;;1.30;;
73747;SDS011;62056;52.130;5.428;2023-02-18T10:31:54;7.63;;;1.00;;
73747;SDS011;62056;52.130;5.428;2023-02-18T10:40:19;4.87;;;1.37;;
73747;SDS011;62056;52.130;5.428;2023-02-18T10:43:05;10.65;;;1.30;;
73747;SDS011;62056;52.130;5.428;2023-02-18T10:45:57;11.68;;;1.30;;
73747;SDS011;62056;52.130;5.428;2023-02-18T10:51:14;5.72;;;1.20;;
73747;SDS011;62056;52.130;5.428;2023-02-18T10:53:48;9.97;;;2.27;;
73747;SDS011;62056;52.130;5.428;2023-02-18T10:59:12;8.00;;;1.70;;
73747;SDS011;62056;52.130;5.428;2023-02-18T11:01:44;10.55;;;2.97;;
73747;SDS011;62056;52.130;5.428;2023-02-18T11:04:19;8.60;;;1.52;;
73747;SDS011;62056;52.130;5.428;2023-02-18T11:06:50;5.60;;;1.30;;
73747;SDS011;62056;52.130;5.428;2023-02-18T11:12:13;8.27;;;1.83;;
73747;SDS011;62056;52.130;5.428;2023-02-18T11:14:46;8.82;;;1.70;;
73747;SDS011;62056;52.130;5.428;2023-02-18T11:19:52;9.80;;;1.77;;
73747;SDS011;62056;52.130;5.428;2023-02-18T11:22:24;8.68;;;1.38;;
73747;SDS011;62056;52.130;5.428;2023-02-18T11:24:58;10.52;;;1.58;;
73747;SDS011;62056;52.130;5.428;2023-02-18T11:27:35;9.43;;;1.60;;
73747;SDS011;62056;52.130;5.428;2023-02-18T11:30:30;5.75;;;1.27;;
73747;SDS011;62056;52.130;5.428;2023-02-18T11:33:08;8.83;;;0.93;;
73747;SDS011;62056;52.130;5.428;2023-02-18T11:36:01;7.20;;;0.82;;
73747;SDS011;62056;52.130;5.428;2023-02-18T11:38:44;8.15;;;1.13;;
73747;SDS011;62056;52.130;5.428;2023-02-18T11:41:19;10.73;;;1.60;;
73747;SDS011;62056;52.130;5.428;2023-02-18T11:43:57;14.23;;;1.80;;
73747;SDS011;62056;52.130;5.428;2023-02-18T11:46:25;5.47;;;1.00;;
73747;SDS011;62056;52.130;5.428;2023-02-18T11:48:53;7.18;;;0.88;;
73747;SDS011;62056;52.130;5.428;2023-02-18T11:51:25;7.57;;;1.27;;
73747;SDS011;62056;52.130;5.428;2023-02-18T11:54:01;7.68;;;1.23;;
73747;SDS011;62056;52.130;5.428;2023-02-18T11:56:53;6.60;;;1.20;;
73747;SDS011;62056;52.130;5.428;2023-02-18T11:59:31;6.90;;;0.97;;
73747;SDS011;62056;52.130;5.428;2023-02-18T12:04:49;10.43;;;1.63;;
73747;SDS011;62056;52.130;5.428;2023-02-18T12:09:57;8.70;;;1.52;;
73747;SDS011;62056;52.130;5.428;2023-02-18T12:12:30;10.10;;;1.40;;
73747;SDS011;62056;52.130;5.428;2023-02-18T12:15:01;9.00;;;1.50;;
73747;SDS011;62056;52.130;5.428;2023-02-18T12:23:45;6.25;;;1.05;;
73747;SDS011;62056;52.130;5.428;2023-02-18T12:26:28;9.95;;;1.25;;
73747;SDS011;62056;52.130;5.428;2023-02-18T12:29:13;4.97;;;1.25;;
73747;SDS011;62056;52.130;5.428;2023-02-18T12:32:04;8.70;;;1.50;;
73747;SDS011;62056;52.130;5.428;2023-02-18T12:34:49;6.55;;;1.00;;
73747;SDS011;62056;52.130;5.428;2023-02-18T12:37:53;12.90;;;1.10;;
73747;SDS011;62056;52.130;5.428;2023-02-18T12:40:49;3.93;;;1.07;;
73747;SDS011;62056;52.130;5.428;2023-02-18T12:46:59;9.88;;;1.45;;
73747;SDS011;62056;52.130;5.428;2023-02-18T12:53:21;3.80;;;0.90;;
73747;SDS011;62056;52.130;5.428;2023-02-18T12:56:18;7.20;;;1.57;;
73747;SDS011;62056;52.130;5.428;2023-02-18T13:02:02;9.73;;;1.25;;
73747;SDS011;62056;52.130;5.428;2023-02-18T13:07:47;4.07;;;1.20;;
73747;SDS011;62056;52.130;5.428;2023-02-18T13:10:31;9.10;;;2.33;;
73747;SDS011;62056;52.130;5.428;2023-02-18T13:13:16;5.60;;;1.05;;
73747;SDS011;62056;52.130;5.428;2023-02-18T13:15:51;8.35;;;1.45;;
73747;SDS011;62056;52.130;5.428;2023-02-18T13:18:24;5.60;;;1.38;;
73747;SDS011;62056;52.130;5.428;2023-02-18T13:20:58;7.10;;;1.55;;
73747;SDS011;62056;52.130;5.428;2023-02-18T13:23:32;5.70;;;1.15;;
73747;SDS011;62056;52.130;5.428;2023-02-18T13:26:03;6.40;;;0.85;;
73747;SDS011;62056;52.130;5.428;2023-02-18T13:28:38;5.68;;;1.10;;
73747;SDS011;62056;52.130;5.428;2023-02-18T13:34:23;3.10;;;0.60;;
73747;SDS011;62056;52.130;5.428;2023-02-18T13:39:49;7.07;;;1.98;;
73747;SDS011;62056;52.130;5.428;2023-02-18T13:42:25;6.78;;;1.90;;
73747;SDS011;62056;52.130;5.428;2023-02-18T13:47:41;4.97;;;1.10;;
73747;SDS011;62056;52.130;5.428;2023-02-18T13:50:13;6.37;;;1.30;;
73747;SDS011;62056;52.130;5.428;2023-02-18T13:55:38;5.53;;;0.82;;
73747;SDS011;62056;52.130;5.428;2023-02-18T13:58:13;2.15;;;0.60;;
73747;SDS011;62056;52.130;5.428;2023-02-18T14:00:48;4.20;;;0.85;;
73747;SDS011;62056;52.130;5.428;2023-02-18T14:06:18;5.65;;;0.75;;
73747;SDS011;62056;52.130;5.428;2023-02-18T14:09:03;6.63;;;0.80;;
73747;SDS011;62056;52.130;5.428;2023-02-18T14:22:46;2.45;;;0.60;;
73747;SDS011;62056;52.130;5.428;2023-02-18T14:25:20;2.58;;;0.65;;
73747;SDS011;62056;52.130;5.428;2023-02-18T14:28:00;3.30;;;0.95;;
73747;SDS011;62056;52.130;5.428;2023-02-18T14:31:24;3.80;;;0.53;;
73747;SDS011;62056;52.130;5.428;2023-02-18T14:42:46;6.13;;;1.00;;
73747;SDS011;62056;52.130;5.428;2023-02-18T14:48:58;4.22;;;0.85;;
73747;SDS011;62056;52.130;5.428;2023-02-18T14:51:50;3.65;;;0.80;;
73747;SDS011;62056;52.130;5.428;2023-02-18T14:54:22;1.40;;;0.55;;
73747;SDS011;62056;52.130;5.428;2023-02-18T14:56:59;1.55;;;0.52;;
73747;SDS011;62056;52.130;5.428;2023-02-18T14:59:50;4.60;;;0.95;;
73747;SDS011;62056;52.130;5.428;2023-02-18T15:02:26;3.70;;;0.73;;
73747;SDS011;62056;52.130;5.428;2023-02-18T15:07:56;7.18;;;0.95;;
73747;SDS011;62056;52.130;5.428;2023-02-18T15:10:33;4.07;;;0.70;;
73747;SDS011;62056;52.130;5.428;2023-02-18T15:15:53;3.33;;;1.10;;
73747;SDS011;62056;52.130;5.428;2023-02-18T15:18:35;4.25;;;0.85;;
73747;SDS011;62056;52.130;5.428;2023-02-18T15:21:16;4.20;;;1.10;;
73747;SDS011;62056;52.130;5.428;2023-02-18T15:23:50;4.03;;;0.80;;
73747;SDS011;62056;52.130;5.428;2023-02-18T15:26:18;3.33;;;0.60;;
73747;SDS011;62056;52.130;5.428;2023-02-18T15:28:54;3.88;;;1.00;;
73747;SDS011;62056;52.130;5.428;2023-02-18T15:31:25;2.95;;;0.93;;
73747;SDS011;62056;52.130;5.428;2023-02-18T15:33:54;3.40;;;0.60;;
73747;SDS011;62056;52.130;5.428;2023-02-18T15:36:21;3.55;;;0.60;;
73747;SDS011;62056;52.130;5.428;2023-02-18T15:38:55;6.23;;;1.73;;
73747;SDS011;62056;52.130;5.428;2023-02-18T15:41:22;2.38;;;0.90;;
73747;SDS011;62056;52.130;5.428;2023-02-18T15:43:54;6.22;;;0.73;;
73747;SDS011;62056;52.130;5.428;2023-02-18T15:46:27;7.95;;;1.15;;
73747;SDS011;62056;52.130;5.428;2023-02-18T15:48:55;3.78;;;0.90;;
73747;SDS011;62056;52.130;5.428;2023-02-18T15:51:25;12.80;;;1.57;;
73747;SDS011;62056;52.130;5.428;2023-02-18T15:53:58;9.50;;;1.02;;
73747;SDS011;62056;52.130;5.428;2023-02-18T15:56:29;7.90;;;2.03;;
73747;SDS011;62056;52.130;5.428;2023-02-18T15:59:08;5.78;;;1.42;;
73747;SDS011;62056;52.130;5.428;2023-02-18T16:01:41;4.32;;;0.88;;
73747;SDS011;62056;52.130;5.428;2023-02-18T16:04:12;6.27;;;1.30;;
73747;SDS011;62056;52.130;5.428;2023-02-18T16:06:48;4.80;;;1.02;;
73747;SDS011;62056;52.130;5.428;2023-02-18T16:09:26;5.40;;;1.02;;
73747;SDS011;62056;52.130;5.428;2023-02-18T16:12:01;8.30;;;1.50;;
73747;SDS011;62056;52.130;5.428;2023-02-18T16:17:25;5.70;;;1.17;;
73747;SDS011;62056;52.130;5.428;2023-02-18T16:19:57;8.02;;;1.27;;
73747;SDS011;62056;52.130;5.428;2023-02-18T16:22:32;8.00;;;1.65;;
73747;SDS011;62056;52.130;5.428;2023-02-18T16:25:14;11.77;;;1.77;;
73747;SDS011;62056;52.130;5.428;2023-02-18T16:27:46;4.53;;;1.10;;
73747;SDS011;62056;52.130;5.428;2023-02-18T16:30:25;9.63;;;1.50;;
73747;SDS011;62056;52.130;5.428;2023-02-18T16:32:55;8.98;;;1.92;;
73747;SDS011;62056;52.130;5.428;2023-02-18T16:35:28;5.60;;;1.67;;
73747;SDS011;62056;52.130;5.428;2023-02-18T16:38:18;7.18;;;2.10;;
73747;SDS011;62056;52.130;5.428;2023-02-18T16:40:48;7.40;;;1.45;;
73747;SDS011;62056;52.130;5.428;2023-02-18T16:43:19;7.53;;;1.57;;
73747;SDS011;62056;52.130;5.428;2023-02-18T16:45:50;11.02;;;1.45;;
73747;SDS011;62056;52.130;5.428;2023-02-18T16:48:29;9.18;;;1.63;;
73747;SDS011;62056;52.130;5.428;2023-02-18T16:51:03;7.47;;;1.70;;
73747;SDS011;62056;52.130;5.428;2023-02-18T16:53:34;4.35;;;1.15;;
73747;SDS011;62056;52.130;5.428;2023-02-18T16:56:03;8.48;;;1.65;;
73747;SDS011;62056;52.130;5.428;2023-02-18T16:58:31;8.55;;;2.03;;
73747;SDS011;62056;52.130;5.428;2023-02-18T17:00:58;4.70;;;1.52;;
73747;SDS011;62056;52.130;5.428;2023-02-18T17:03:26;7.47;;;2.40;;
73747;SDS011;62056;52.130;5.428;2023-02-18T17:05:55;5.43;;;1.27;;
73747;SDS011;62056;52.130;5.428;2023-02-18T17:08:23;5.77;;;1.40;;